Time;durP1;ratioP1;P1;durP2;ratioP2;P2;SDS_P1;SDS_P2;PMS_P1;PMS_P2;Temp;Humidity;BMP_temperature;BMP_pressure;BME280_temperature;BME280_humidity;BME280_pressure;Samples;Min_cycle;Max_cycle;Signal;HPM_P1;HPM_P2
2023/10/28 00:00:48;;;;;;;14.50;10.60;;;;;;;10.24;100.00;98868.47;5008763;28;20211;-83
2023/10/28 00:03:15;;;;;;;13.30;9.87;;;;;;;10.24;100.00;98871.13;5005272;28;20225;-83
2023/10/28 00:05:42;;;;;;;13.00;9.97;;;;;;;10.24;100.00;98870.28;5003944;28;20227;-83
2023/10/28 00:08:10;;;;;;;13.27;10.37;;;;;;;10.25;100.00;98864.00;5005728;28;20207;-83
2023/10/28 00:10:36;;;;;;;13.23;10.03;;;;;;;10.24;100.00;98865.81;5005533;28;20590;-83
2023/10/28 00:13:04;;;;;;;12.20;9.87;;;;;;;10.24;100.00;98865.81;5005764;28;20797;-83
2023/10/28 00:15:31;;;;;;;13.77;10.07;;;;;;;10.27;100.00;98870.03;5002946;28;20223;-83
2023/10/28 00:17:57;;;;;;;14.00;11.37;;;;;;;10.27;100.00;98864.69;5005574;28;20224;-83
2023/10/28 00:20:24;;;;;;;12.90;9.93;;;;;;;10.25;100.00;98867.50;5003486;28;20782;-82
2023/10/28 00:22:53;;;;;;;16.00;10.97;;;;;;;10.27;100.00;98870.03;5004912;28;20712;-83
2023/10/28 00:25:22;;;;;;;14.47;10.73;;;;;;;10.27;100.00;98868.22;5010044;28;20662;-83
2023/10/28 00:27:49;;;;;;;14.97;10.40;;;;;;;10.24;100.00;98875.63;5003773;28;20362;-83
2023/10/28 00:30:15;;;;;;;14.00;10.73;;;;;;;10.22;100.00;98870.44;4997355;28;20576;-83
2023/10/28 00:32:42;;;;;;;14.93;10.87;;;;;;;10.23;100.00;98873.94;5004742;28;20629;-83
2023/10/28 00:35:11;;;;;;;13.13;10.27;;;;;;;10.21;100.00;98882.06;5016098;28;20225;-83
2023/10/28 00:37:38;;;;;;;15.10;10.77;;;;;;;10.21;100.00;98873.25;5002584;28;20243;-83
2023/10/28 00:40:06;;;;;;;13.77;11.07;;;;;;;10.21;100.00;98873.25;5000072;28;20222;-82
2023/10/28 00:42:35;;;;;;;13.80;10.70;;;;;;;10.22;100.00;98877.56;5002384;28;20580;-82
2023/10/28 00:45:02;;;;;;;18.73;12.00;;;;;;;10.23;100.00;98884.56;5004035;28;20220;-83
2023/10/28 00:47:28;;;;;;;16.33;11.47;;;;;;;10.23;100.00;98885.41;5006292;28;20204;-82
2023/10/28 00:49:57;;;;;;;14.77;9.93;;;;;;;10.22;100.00;98885.56;4999521;28;20212;-82
2023/10/28 00:52:24;;;;;;;13.87;10.37;;;;;;;10.20;100.00;98880.41;4999448;28;20308;-83
2023/10/28 00:54:54;;;;;;;15.57;10.97;;;;;;;10.20;100.00;98887.53;5002438;28;20236;-82
2023/10/28 00:57:21;;;;;;;15.57;11.43;;;;;;;10.21;100.00;98889.22;5004322;28;20229;-82
2023/10/28 00:59:49;;;;;;;14.13;10.30;;;;;;;10.21;100.00;98887.38;5008715;28;20208;-82
2023/10/28 01:02:17;;;;;;;15.03;10.70;;;;;;;10.19;100.00;98897.34;5004563;28;20859;-83
2023/10/28 01:04:44;;;;;;;17.50;11.37;;;;;;;10.18;100.00;98900.94;5001126;28;20321;-83
2023/10/28 01:07:10;;;;;;;19.70;11.13;;;;;;;10.18;100.00;98905.41;4998165;28;20211;-83
2023/10/28 01:09:45;;;;;;;14.47;10.20;;;;;;;10.19;100.00;98896.50;5001779;28;20222;-83
2023/10/28 01:12:13;;;;;;;11.27;8.00;;;;;;;10.21;100.00;98899.88;5005238;28;20265;-83
2023/10/28 01:14:40;;;;;;;9.60;7.80;;;;;;;10.18;100.00;98900.09;5005896;28;20233;-83
2023/10/28 01:17:08;;;;;;;9.10;7.13;;;;;;;10.16;100.00;98897.56;4998531;28;20235;-83
2023/10/28 01:19:35;;;;;;;6.57;5.00;;;;;;;10.16;100.00;98900.22;5006380;28;20221;-82
2023/10/28 01:22:03;;;;;;;6.03;4.47;;;;;;;10.16;100.00;98899.41;4999925;28;20203;-83
2023/10/28 01:24:32;;;;;;;5.43;4.33;;;;;;;10.15;100.00;98900.38;5006728;28;20208;-83
2023/10/28 01:26:59;;;;;;;5.27;3.43;;;;;;;10.14;100.00;98888.03;5001920;28;20203;-83
2023/10/28 01:29:26;;;;;;;3.70;2.70;;;;;;;10.15;100.00;98887.91;4999238;28;21431;-83
2023/10/28 01:31:52;;;;;;;6.93;3.27;;;;;;;10.12;100.00;98887.34;5010771;28;20251;-83
2023/10/28 01:34:19;;;;;;;2.93;2.40;;;;;;;10.08;100.00;98884.94;5005355;28;20207;-83
2023/10/28 01:36:46;;;;;;;2.80;2.30;;;;;;;10.07;100.00;98874.44;5002162;28;20237;-83
2023/10/28 01:39:15;;;;;;;2.73;2.17;;;;;;;10.05;100.00;98885.22;5004710;28;20256;-82
2023/10/28 01:41:42;;;;;;;3.40;2.30;;;;;;;10.05;100.00;98882.56;5000917;28;20303;-83
2023/10/28 01:44:09;;;;;;;3.30;2.73;;;;;;;10.05;100.00;98879.91;5011079;28;20695;-83
2023/10/28 01:46:35;;;;;;;3.03;2.50;;;;;;;10.04;100.00;98880.88;4998119;28;20228;-82
2023/10/28 01:49:03;;;;;;;3.37;2.90;;;;;;;10.03;100.00;98891.69;5008535;28;20571;-82
2023/10/28 01:51:29;;;;;;;2.83;2.50;;;;;;;10.02;100.00;98884.66;5007335;28;20211;-83
2023/10/28 01:53:55;;;;;;;3.40;3.10;;;;;;;9.99;100.00;98883.13;5003878;28;20204;-83
2023/10/28 01:56:23;;;;;;;4.37;2.90;;;;;;;9.96;100.00;98891.38;4997438;28;20239;-82
2023/10/28 01:58:50;;;;;;;5.63;2.80;;;;;;;9.96;100.00;98890.53;5003231;28;20231;-83
2023/10/28 02:01:16;;;;;;;3.80;2.63;;;;;;;9.95;100.00;98895.00;4996471;28;20594;-83
2023/10/28 02:03:43;;;;;;;5.57;2.93;;;;;;;9.95;100.00;98889.69;5004915;28;20812;-83
2023/10/28 02:06:10;;;;;;;3.20;2.90;;;;;;;9.94;100.00;98893.31;5003950;28;20274;-83
2023/10/28 02:08:36;;;;;;;3.17;2.87;;;;;;;9.93;100.00;98886.31;5002581;28;20199;-82
2023/10/28 02:11:03;;;;;;;3.60;3.03;;;;;;;9.93;100.00;98886.31;5002244;28;20213;-82
2023/10/28 02:13:31;;;;;;;3.77;3.23;;;;;;;9.93;100.00;98885.47;5008675;28;20217;-82
2023/10/28 02:15:57;;;;;;;4.13;3.27;;;;;;;9.92;100.00;98883.78;4999773;28;20257;-82
2023/10/28 02:18:24;;;;;;;5.37;2.97;;;;;;;9.91;100.00;98884.75;4996839;28;20229;-83
2023/10/28 02:20:50;;;;;;;5.60;3.57;;;;;;;9.91;100.00;98887.41;4999444;28;20208;-82
2023/10/28 02:23:17;;;;;;;5.00;3.83;;;;;;;9.87;100.00;98883.34;4997972;28;20203;-82
2023/10/28 02:25:43;;;;;;;5.20;3.77;;;;;;;9.85;100.00;98895.97;5016277;28;20232;-82
2023/10/28 02:28:10;;;;;;;6.60;4.50;;;;;;;9.81;100.00;98891.88;5013140;28;20207;-82
2023/10/28 02:30:39;;;;;;;4.63;3.93;;;;;;;9.81;100.00;98897.19;4998295;28;20222;-83
2023/10/28 02:33:06;;;;;;;5.00;4.10;;;;;;;9.75;100.00;98894.09;5008736;28;20650;-83
2023/10/28 02:35:33;;;;;;;4.70;3.80;;;;;;;9.73;100.00;98888.06;5004951;28;20257;-83
2023/10/28 02:37:59;;;;;;;5.17;4.30;;;;;;;9.72;100.00;98891.69;5008564;28;20235;-82
2023/10/28 02:40:26;;;;;;;7.23;4.53;;;;;;;9.67;100.00;98885.94;5008515;28;20586;-82
2023/10/28 02:42:52;;;;;;;5.63;3.80;;;;;;;9.65;100.00;98898.56;5000107;28;20207;-83
2023/10/28 02:45:19;;;;;;;4.77;4.00;;;;;;;9.61;100.00;98893.63;4994624;28;20250;-82
2023/10/28 02:47:47;;;;;;;5.40;3.60;;;;;;;9.61;100.00;98897.13;5019238;28;20220;-83
2023/10/28 02:50:14;;;;;;;5.70;3.97;;;;;;;9.56;100.00;98895.84;5002033;28;20212;-82
2023/10/28 02:52:41;;;;;;;7.03;4.00;;;;;;;9.51;100.00;98896.22;5007239;28;20581;-82
2023/10/28 02:55:08;;;;;;;5.07;3.83;;;;;;;9.45;100.00;98891.47;4993509;28;20232;-82
2023/10/28 02:57:34;;;;;;;8.00;4.33;;;;;;;9.42;100.00;98896.19;4999854;28;20221;-82
2023/10/28 03:00:01;;;;;;;7.00;4.20;;;;;;;9.38;100.00;98895.59;5017662;28;20647;-82
2023/10/28 03:02:27;;;;;;;7.33;3.93;;;;;;;9.36;100.00;98894.91;5008650;28;20230;-82
2023/10/28 03:04:55;;;;;;;5.97;3.80;;;;;;;9.34;100.00;98895.03;5006603;28;20233;-82
2023/10/28 03:07:22;;;;;;;8.10;4.50;;;;;;;9.34;100.00;98900.34;5005181;28;20723;-82
2023/10/28 03:09:48;;;;;;;5.30;3.93;;;;;;;9.32;100.00;98901.44;4998785;28;20310;-82
2023/10/28 03:12:15;;;;;;;5.63;4.20;;;;;;;9.33;100.00;98908.44;5002157;28;20683;-83
2023/10/28 03:14:42;;;;;;;5.17;4.00;;;;;;;9.32;100.00;98912.06;5016740;28;20229;-82
2023/10/28 03:17:09;;;;;;;4.60;4.13;;;;;;;9.32;100.00;98906.75;5008034;28;20264;-82
2023/10/28 03:19:35;;;;;;;5.30;4.33;;;;;;;9.32;100.00;98909.41;5007400;28;20294;-83
2023/10/28 03:22:03;;;;;;;5.10;3.93;;;;;;;9.32;100.00;98904.94;5002576;28;20203;-82
2023/10/28 03:24:29;;;;;;;5.47;4.50;;;;;;;9.32;100.00;98907.59;5003376;28;20218;-82
2023/10/28 03:26:56;;;;;;;6.07;4.73;;;;;;;9.33;100.00;98900.47;5001215;28;20211;-82
2023/10/28 03:29:22;;;;;;;4.83;4.00;;;;;;;9.30;100.00;98900.75;5005008;28;20209;-83
2023/10/28 03:31:49;;;;;;;4.80;4.03;;;;;;;9.26;100.00;98894.03;4994753;28;20298;-82
2023/10/28 03:34:15;;;;;;;5.53;3.90;;;;;;;9.24;100.00;98899.47;5004972;28;20764;-82
2023/10/28 03:36:42;;;;;;;6.93;4.27;;;;;;;9.23;100.00;98910.22;4995526;28;20652;-82
2023/10/28 03:39:10;;;;;;;4.87;3.73;;;;;;;9.22;100.00;98911.19;5002442;28;20231;-82
2023/10/28 03:41:39;;;;;;;5.90;4.17;;;;;;;9.21;100.00;98910.34;5022610;28;20285;-82
2023/10/28 03:44:05;;;;;;;6.10;4.83;;;;;;;9.19;100.00;98912.28;5047311;28;20452;-82
2023/10/28 03:46:32;;;;;;;6.07;5.10;;;;;;;9.18;100.00;98905.28;5013119;28;20234;-83
2023/10/28 03:48:59;;;;;;;5.73;4.33;;;;;;;9.17;100.00;98913.38;5008000;28;20298;-82
2023/10/28 03:51:26;;;;;;;6.33;4.83;;;;;;;9.18;100.00;98909.75;5005496;28;20214;-82
2023/10/28 03:53:52;;;;;;;8.27;4.87;;;;;;;9.18;100.00;98907.09;5041301;28;20211;-82
2023/10/28 03:56:20;;;;;;;6.50;4.60;;;;;;;9.14;100.00;98908.31;5009436;28;20223;-82
2023/10/28 03:58:47;;;;;;;4.77;4.17;;;;;;;9.12;100.00;98902.34;5018238;28;20231;-82
2023/10/28 04:01:13;;;;;;;5.70;4.30;;;;;;;9.09;100.00;98913.22;4999913;28;20294;-82
2023/10/28 04:03:40;;;;;;;6.23;4.73;;;;;;;9.03;100.00;98912.75;5012475;28;20650;-82
2023/10/28 04:06:06;;;;;;;5.30;4.60;;;;;;;9.01;100.00;98908.53;5005370;28;20232;-82
2023/10/28 04:08:33;;;;;;;6.17;4.47;;;;;;;8.99;100.00;98913.97;4997911;28;20208;-82
2023/10/28 04:10:59;;;;;;;7.23;4.83;;;;;;;8.98;100.00;98917.59;5017080;28;20207;-83
2023/10/28 04:13:27;;;;;;;5.20;4.33;;;;;;;8.97;100.00;98923.88;5015425;28;20217;-83
2023/10/28 04:15:53;;;;;;;6.03;4.40;;;;;;;8.97;100.00;98923.03;5002556;28;20232;-83
2023/10/28 04:18:20;;;;;;;6.47;4.10;;;;;;;8.97;100.00;98925.69;5008324;28;20269;-83
2023/10/28 04:20:46;;;;;;;5.93;4.23;;;;;;;8.96;100.00;98927.50;5052490;28;20567;-83
2023/10/28 04:23:13;;;;;;;9.33;5.17;;;;;;;8.99;100.00;98931.72;5003055;28;20574;-82
2023/10/28 04:25:40;;;;;;;6.93;5.03;;;;;;;8.98;100.00;98920.25;5007553;28;20232;-81
2023/10/28 04:28:07;;;;;;;7.40;4.63;;;;;;;8.96;100.00;98924.84;5013608;28;20665;-82
2023/10/28 04:30:35;;;;;;;6.37;4.90;;;;;;;8.97;100.00;98931.84;5003335;28;20680;-82
2023/10/28 04:33:03;;;;;;;6.43;4.87;;;;;;;8.97;100.00;98925.69;5004018;28;20207;-81
2023/10/28 04:35:30;;;;;;;6.90;4.67;;;;;;;8.96;100.00;98932.81;5007420;28;20218;-81
2023/10/28 04:37:57;;;;;;;5.13;4.37;;;;;;;8.97;100.00;98931.00;5005567;28;20652;-82
2023/10/28 04:40:24;;;;;;;8.33;4.40;;;;;;;8.95;100.00;98925.84;5003641;28;20585;-82
2023/10/28 04:42:51;;;;;;;13.90;4.87;;;;;;;8.96;100.00;98927.50;5010633;28;20212;-82
2023/10/28 04:45:18;;;;;;;6.13;4.70;;;;;;;8.95;100.00;98925.84;5009956;28;20222;-82
2023/10/28 04:47:46;;;;;;;6.53;4.10;;;;;;;8.93;100.00;98922.47;5011764;28;20259;-81
2023/10/28 04:50:13;;;;;;;9.20;5.13;;;;;;;8.92;100.00;98923.44;5004511;28;20203;-82
2023/10/28 04:52:40;;;;;;;6.30;4.73;;;;;;;8.91;100.00;98921.75;5003436;28;20569;-82
2023/10/28 04:55:07;;;;;;;5.57;4.30;;;;;;;8.91;100.00;98936.84;4998911;28;20227;-82
2023/10/28 04:57:34;;;;;;;5.27;4.60;;;;;;;8.89;100.00;98931.66;5004029;28;20210;-81
2023/10/28 05:00:00;;;;;;;8.37;5.13;;;;;;;8.89;100.00;98926.34;5018348;28;20222;-82
2023/10/28 05:02:27;;;;;;;7.50;4.33;;;;;;;8.92;100.00;98931.41;5041692;28;20203;-82
2023/10/28 05:04:55;;;;;;;6.90;4.20;;;;;;;8.94;100.00;98932.13;5074779;28;20227;-81
2023/10/28 05:07:22;;;;;;;8.27;4.20;;;;;;;8.94;100.00;98931.28;5005529;28;20215;-82
2023/10/28 05:09:48;;;;;;;7.97;4.63;;;;;;;8.93;100.00;98932.25;5007715;28;20534;-82
2023/10/28 05:12:15;;;;;;;7.07;4.30;;;;;;;8.94;100.00;98929.47;5006359;28;20203;-82
2023/10/28 05:14:41;;;;;;;10.00;4.67;;;;;;;8.95;100.00;98923.19;5003734;28;20219;-82
2023/10/28 05:17:08;;;;;;;6.93;4.63;;;;;;;8.95;100.00;98925.84;5007050;28;20207;-82
2023/10/28 05:19:34;;;;;;;5.70;4.83;;;;;;;8.96;100.00;98931.97;4996507;28;20230;-82
2023/10/28 05:22:03;;;;;;;6.53;4.57;;;;;;;8.97;100.00;98941.63;5002154;28;20200;-81
2023/10/28 05:24:30;;;;;;;8.23;4.77;;;;;;;8.98;100.00;98936.19;5007262;28;20221;-83
2023/10/28 05:26:57;;;;;;;8.03;4.47;;;;;;;8.99;100.00;98929.91;5005762;28;20199;-82
2023/10/28 05:29:23;;;;;;;10.80;4.60;;;;;;;8.98;100.00;98928.22;5034151;28;20203;-83
2023/10/28 05:31:50;;;;;;;7.53;3.83;;;;;;;9.01;100.00;98932.44;4996823;28;20203;-81
2023/10/28 05:34:19;;;;;;;8.77;4.83;;;;;;;9.01;100.00;98929.78;5032412;28;20211;-81
2023/10/28 05:36:45;;;;;;;6.80;4.83;;;;;;;8.99;100.00;98937.03;5020369;28;20291;-82
2023/10/28 05:39:13;;;;;;;5.80;4.07;;;;;;;8.97;100.00;98949.59;5004882;28;20230;-81
2023/10/28 05:41:39;;;;;;;7.77;4.20;;;;;;;8.96;100.00;98947.91;5005024;28;20203;-81
2023/10/28 05:44:06;;;;;;;7.17;4.53;;;;;;;8.97;100.00;98950.44;5006386;28;20207;-82
2023/10/28 05:46:32;;;;;;;8.10;3.63;;;;;;;8.99;100.00;98942.34;5007025;28;20223;-81
2023/10/28 05:49:00;;;;;;;6.00;3.90;;;;;;;8.99;100.00;98953.81;5003145;28;20207;-82
2023/10/28 05:51:26;;;;;;;8.20;3.93;;;;;;;9.01;100.00;98961.63;4995081;28;20218;-82
2023/10/28 05:53:53;;;;;;;7.20;2.87;;;;;;;9.06;100.00;98954.13;5003765;28;20217;-82
2023/10/28 05:56:21;;;;;;;6.57;2.97;;;;;;;9.11;100.00;98959.91;5019831;28;20227;-81
2023/10/28 05:58:48;;;;;;;9.60;3.33;;;;;;;9.17;100.00;98972.66;5011591;28;20286;-83
2023/10/28 06:01:14;;;;;;;6.33;2.97;;;;;;;9.22;100.00;98966.97;5016826;28;20557;-82
2023/10/28 06:03:41;;;;;;;8.30;3.00;;;;;;;9.27;100.00;98970.09;5007232;28;20604;-82
2023/10/28 06:06:07;;;;;;;4.73;2.90;;;;;;;9.31;100.00;98967.03;5002418;28;20231;-82
2023/10/28 06:08:34;;;;;;;5.43;2.43;;;;;;;9.34;100.00;98963.25;5007526;28;20213;-82
2023/10/28 06:11:00;;;;;;;5.93;2.50;;;;;;;9.36;100.00;98971.94;5004853;28;20228;-82
2023/10/28 06:13:29;;;;;;;5.00;3.07;;;;;;;9.40;100.00;98974.22;5001040;28;20298;-81
2023/10/28 06:15:55;;;;;;;5.47;2.63;;;;;;;9.40;100.00;98974.22;5000527;28;20218;-80
2023/10/28 06:18:21;;;;;;;5.47;2.70;;;;;;;9.47;100.00;98979.88;5009955;28;20211;-81
2023/10/28 06:20:48;;;;;;;4.40;2.57;;;;;;;9.47;100.00;98979.88;5008723;28;20207;-81
2023/10/28 06:23:15;;;;;;;6.63;2.50;;;;;;;9.49;100.00;98977.94;5006300;28;20675;-82
2023/10/28 06:25:42;;;;;;;4.17;2.43;;;;;;;9.51;100.00;98981.25;5003245;28;20227;-82
2023/10/28 06:28:10;;;;;;;6.50;2.70;;;;;;;9.52;100.00;98979.44;5004679;28;20218;-82
2023/10/28 06:30:45;;;;;;;4.13;2.37;;;;;;;9.52;100.00;98992.72;5001082;28;20210;-82
2023/10/28 06:33:13;;;;;;;6.57;2.33;;;;;;;9.54;100.00;98986.31;4998702;28;20277;-82
2023/10/28 06:35:39;;;;;;;5.23;2.40;;;;;;;9.58;100.00;98992.22;5007650;28;20222;-82
2023/10/28 06:38:06;;;;;;;3.90;2.10;;;;;;;9.61;100.00;98992.81;5008966;28;20210;-82
2023/10/28 06:40:32;;;;;;;5.40;2.30;;;;;;;9.63;100.00;99000.66;5011504;28;20706;-82
2023/10/28 06:42:59;;;;;;;3.73;2.00;;;;;;;9.61;100.00;98998.13;5007769;28;20574;-81
2023/10/28 06:45:25;;;;;;;6.20;2.40;;;;;;;9.61;100.00;98994.63;5005374;28;20228;-82
2023/10/28 06:47:53;;;;;;;3.60;2.20;;;;;;;9.63;100.00;98996.19;5004290;28;20585;-83
2023/10/28 06:50:20;;;;;;;3.77;2.10;;;;;;;9.63;100.00;98998.00;5000913;28;20207;-83
2023/10/28 06:52:47;;;;;;;5.10;2.10;;;;;;;9.64;100.00;99008.50;5001605;28;20699;-82
2023/10/28 06:55:13;;;;;;;4.00;2.30;;;;;;;9.66;100.00;99011.03;5006070;28;20280;-82
2023/10/28 06:57:41;;;;;;;2.17;1.80;;;;;;;9.69;100.00;99016.91;5004532;28;20203;-82
2023/10/28 07:00:12;;;;;;;6.23;2.40;;;;;;;9.71;100.00;99020.28;5003656;28;20234;-82
2023/10/28 07:02:38;;;;;;;4.57;2.27;;;;;;;9.72;100.00;99021.13;4996214;28;20203;-82
2023/10/28 07:05:08;;;;;;;3.10;1.93;;;;;;;9.72;100.00;99021.97;5002839;28;21653;-82
2023/10/28 07:07:35;;;;;;;4.07;1.77;;;;;;;9.73;100.00;99028.97;5003611;28;20248;-83
2023/10/28 07:10:01;;;;;;;3.07;1.80;;;;;;;9.79;100.00;99034.75;5001753;28;20205;-83
2023/10/28 07:12:28;;;;;;;4.80;2.13;;;;;;;9.76;100.00;99038.50;5002442;28;21404;-83
2023/10/28 07:14:55;;;;;;;3.20;1.80;;;;;;;9.75;100.00;99042.97;5006770;28;20800;-82
2023/10/28 07:17:22;;;;;;;4.83;1.90;;;;;;;9.75;100.00;99042.13;5002534;28;20214;-81
2023/10/28 07:19:49;;;;;;;4.57;2.93;;;;;;;9.79;100.00;99040.06;5006026;28;20227;-82
2023/10/28 07:22:19;;;;;;;5.43;2.57;;;;;;;9.80;100.00;99055.88;5003796;28;20217;-82
2023/10/28 07:24:46;;;;;;;6.83;2.93;;;;;;;9.79;100.00;99048.03;5001646;28;20219;-83
2023/10/28 07:27:13;;;;;;;4.93;2.80;;;;;;;9.79;100.00;99056.00;5003997;28;20207;-83
2023/10/28 07:29:39;;;;;;;5.40;3.57;;;;;;;9.79;100.00;99056.00;5005975;28;20203;-82
2023/10/28 07:32:06;;;;;;;5.70;3.50;;;;;;;9.78;100.00;99054.31;5001063;28;20210;-83
2023/10/28 07:34:33;;;;;;;5.73;3.57;;;;;;;9.80;100.00;99057.69;4991650;28;20651;-82
2023/10/28 07:37:00;;;;;;;3.77;2.90;;;;;;;9.82;100.00;99061.06;5015560;28;20672;-82
2023/10/28 07:39:27;;;;;;;8.93;3.33;;;;;;;9.82;100.00;99063.72;5005502;28;20236;-82
2023/10/28 07:41:54;;;;;;;4.70;3.00;;;;;;;9.85;100.00;99068.78;5019012;28;20204;-83
2023/10/28 07:44:21;;;;;;;3.60;2.23;;;;;;;9.90;100.00;99078.03;5007816;28;20208;-83
2023/10/28 07:46:47;;;;;;;3.37;2.00;;;;;;;9.94;100.00;99081.28;5006814;28;20204;-82
2023/10/28 07:49:14;;;;;;;3.87;1.80;;;;;;;9.95;100.00;99080.31;5008248;28;20258;-81
2023/10/28 07:51:40;;;;;;;3.30;2.00;;;;;;;9.95;100.00;99077.66;5019793;28;20215;-82
2023/10/28 07:54:07;;;;;;;3.50;1.63;;;;;;;9.96;100.00;99082.00;5005985;28;20212;-81
2023/10/28 07:56:35;;;;;;;2.17;1.90;;;;;;;9.98;100.00;99086.22;5003556;28;20223;-82
2023/10/28 07:59:02;;;;;;;4.73;2.00;;;;;;;10.01;100.00;99085.97;5010204;28;20210;-82
2023/10/28 08:01:29;;;;;;;4.37;2.07;;;;;;;10.02;100.00;99087.66;5011608;28;20214;-81
2023/10/28 08:03:56;;;;;;;2.67;1.70;;;;;;;10.04;100.00;99084.81;5012540;28;20246;-80
2023/10/28 08:06:23;;;;;;;2.27;1.70;;;;;;;10.06;100.00;99082.88;5007252;28;20250;-81
2023/10/28 08:08:52;;;;;;;2.97;1.67;;;;;;;10.05;100.00;99081.19;5006538;28;20289;-80
2023/10/28 08:11:20;;;;;;;3.10;1.50;;;;;;;10.07;100.00;99090.72;5015065;28;20213;-82
2023/10/28 08:13:48;;;;;;;2.13;1.67;;;;;;;10.08;100.00;99089.75;5022451;28;20199;-82
2023/10/28 08:16:18;;;;;;;5.97;2.03;;;;;;;10.12;100.00;99097.47;5011468;28;20231;-83
2023/10/28 08:18:45;;;;;;;3.23;2.00;;;;;;;10.13;100.00;99108.00;5007215;28;20665;-83
2023/10/28 08:21:13;;;;;;;3.83;1.93;;;;;;;10.16;100.00;99104.22;5006042;28;20236;-82
2023/10/28 08:23:40;;;;;;;4.13;1.80;;;;;;;10.17;100.00;99109.41;5016294;28;20209;-83
2023/10/28 08:26:10;;;;;;;2.57;1.67;;;;;;;10.23;100.00;99116.88;5011054;28;20223;-82
2023/10/28 08:28:36;;;;;;;3.17;1.50;;;;;;;10.24;100.00;99113.25;5002369;28;20204;-83
2023/10/28 08:31:07;;;;;;;2.03;1.30;;;;;;;10.32;100.00;99113.44;5002713;28;20215;-82
2023/10/28 08:33:34;;;;;;;3.77;1.60;;;;;;;10.32;100.00;99117.94;5010476;28;20457;-83
2023/10/28 08:36:01;;;;;;;3.10;1.50;;;;;;;10.36;100.00;99112.22;5003014;28;20217;-82
2023/10/28 08:38:27;;;;;;;2.73;1.80;;;;;;;10.38;100.00;99114.75;4995734;28;20208;-81
2023/10/28 08:40:54;;;;;;;3.53;1.70;;;;;;;10.43;100.00;99117.81;5013302;28;20717;-84
2023/10/28 08:43:20;;;;;;;1.97;1.60;;;;;;;10.48;100.00;99120.09;5007448;28;20228;-82
2023/10/28 08:45:48;;;;;;;1.93;1.20;;;;;;;10.55;100.00;99121.25;5021298;28;20220;-83
2023/10/28 08:48:20;;;;;;;3.10;2.00;;;;;;;10.61;100.00;99120.69;5021421;28;20667;-83
2023/10/28 08:50:56;;;;;;;5.20;3.10;;;;;;;10.67;100.00;99123.69;5022790;28;20249;-83
2023/10/28 08:53:23;;;;;;;4.10;2.50;;;;;;;10.71;100.00;99118.94;4997061;28;20196;-83
2023/10/28 08:55:50;;;;;;;4.17;3.03;;;;;;;10.74;100.00;99129.31;5007476;28;20288;-83
2023/10/28 08:58:18;;;;;;;3.80;2.00;;;;;;;10.79;100.00;99124.41;5027968;28;20263;-83
2023/10/28 09:00:46;;;;;;;4.37;2.23;;;;;;;10.81;100.00;99126.94;5028204;28;20223;-84
2023/10/28 09:03:14;;;;;;;3.10;2.00;;;;;;;10.86;100.00;99130.88;4999060;28;20301;-83
2023/10/28 09:05:42;;;;;;;1.83;1.73;;;;;;;10.89;100.00;99138.59;4999267;28;20223;-82
2023/10/28 09:08:09;;;;;;;3.30;1.50;;;;;;;10.97;100.00;99141.41;5002076;28;20584;-83
2023/10/28 09:10:35;;;;;;;1.40;1.30;;;;;;;10.98;100.00;99144.94;5004016;28;20394;-83
2023/10/28 09:13:06;;;;;;;2.07;1.23;;;;;;;11.00;100.00;99151.81;5006155;28;20246;-82
2023/10/28 09:15:33;;;;;;;2.17;1.20;;;;;;;11.02;100.00;99151.69;5000031;28;20246;-83
2023/10/28 09:18:01;;;;;;;2.63;1.57;;;;;;;11.04;100.00;99155.91;5002481;28;20212;-83
2023/10/28 09:20:27;;;;;;;2.63;1.40;;;;;;;11.06;100.00;99167.25;5043411;28;20221;-82
2023/10/28 09:22:56;;;;;;;4.53;1.10;;;;;;;11.05;100.00;99157.56;5063202;28;20196;-83
2023/10/28 09:25:22;;;;;;;2.30;1.40;;;;;;;11.08;100.00;99156.47;5046906;28;20230;-82
2023/10/28 09:27:50;;;;;;;1.60;1.20;;;;;;;11.12;100.00;99157.84;5000155;28;20250;-83
2023/10/28 09:30:17;;;;;;;2.50;1.20;;;;;;;11.10;100.00;99159.84;4997157;28;20513;-83
2023/10/28 09:32:45;;;;;;;2.80;1.90;;;;;;;11.14;100.00;99162.06;5009303;28;20658;-83
2023/10/28 09:35:13;;;;;;;1.90;1.47;;;;;;;11.20;100.00;99165.19;5011430;28;20664;-82
2023/10/28 09:37:40;;;;;;;2.43;1.50;;;;;;;11.27;100.00;99163.66;4996578;28;20203;-82
2023/10/28 09:40:12;;;;;;;2.97;2.67;;;;;;;11.28;100.00;99168.00;5005955;28;20730;-83
2023/10/28 09:42:39;;;;;;;3.23;1.93;;;;;;;11.31;100.00;99170.38;5011448;28;20203;-82
2023/10/28 09:45:08;;;;;;;3.50;2.07;;;;;;;11.36;100.00;99169.00;5005073;28;20223;-82
2023/10/28 09:47:42;;;;;;;1.57;1.47;;;;;;;11.37;100.00;99169.84;4991167;28;20232;-83
2023/10/28 09:50:14;;;;;;;1.80;1.57;;;;;;;11.43;100.00;99177.28;4994981;28;20574;-81
2023/10/28 09:52:48;;;;;;;2.33;1.70;;;;;;;11.41;100.00;99173.91;5002910;28;20218;-84
2023/10/28 09:55:20;;;;;;;2.27;1.73;;;;;;;11.44;100.00;99178.97;5006568;28;20782;-83
2023/10/28 09:57:48;;;;;;;5.47;3.27;;;;;;;11.46;100.00;99177.03;5002122;28;20263;-83
2023/10/28 10:00:19;;;;;;;5.27;3.47;;;;;;;11.52;100.00;99173.78;5000522;28;20226;-83
2023/10/28 10:03:03;;;;;;;2.77;2.27;;;;;;;11.56;100.00;99177.88;5018289;28;20209;-82
2023/10/28 10:05:36;;;;;;;2.67;1.63;;;;;;;11.63;100.00;99175.50;4997485;28;20238;-83
2023/10/28 10:08:02;;;;;;;50.23;25.27;;;;;;;11.66;100.00;99172.50;5004432;28;20457;-83
2023/10/28 10:10:30;;;;;;;7.10;4.20;;;;;;;11.71;100.00;99175.63;5005799;28;20252;-82
2023/10/28 10:13:02;;;;;;;2.10;1.90;;;;;;;11.77;100.00;99165.28;5011576;28;20213;-83
2023/10/28 10:15:32;;;;;;;1.00;0.90;;;;;;;11.85;100.00;99166.38;5010100;28;20272;-83
2023/10/28 10:18:09;;;;;;;1.27;1.13;;;;;;;11.88;100.00;99171.44;5017562;28;20203;-83
2023/10/28 10:20:36;;;;;;;1.93;1.40;;;;;;;11.92;100.00;99175.50;5005374;28;20242;-82
2023/10/28 10:23:04;;;;;;;1.03;0.87;;;;;;;12.01;100.00;99167.47;4998514;28;20208;-82
2023/10/28 10:25:39;;;;;;;2.57;1.00;;;;;;;12.06;100.00;99167.06;5026641;28;20602;-82
2023/10/28 10:28:18;;;;;;;3.00;1.77;;;;;;;12.09;100.00;99172.97;5003299;28;20706;-82
2023/10/28 10:30:45;;;;;;;1.30;0.80;;;;;;;12.08;100.00;99168.59;4998242;28;20203;-82
2023/10/28 10:33:11;;;;;;;29.00;12.13;;;;;;;12.08;100.00;99165.09;4991449;28;20216;-82
2023/10/28 10:35:39;;;;;;;13.50;7.37;;;;;;;12.13;100.00;99166.38;5005659;28;20758;-83
2023/10/28 10:38:08;;;;;;;1.70;1.10;;;;;;;12.16;100.00;99163.41;5008072;28;20211;-82
2023/10/28 10:40:49;;;;;;;3.67;2.07;;;;;;;12.20;100.00;99152.41;5011828;28;20225;-82
2023/10/28 10:43:19;;;;;;;1.67;1.20;;;;;;;12.22;100.00;99151.28;5009767;28;20214;-82
2023/10/28 10:45:46;;;;;;;1.13;1.03;;;;;;;12.29;100.00;99156.91;5010632;28;20310;-83
2023/10/28 10:48:13;;;;;;;1.93;1.00;;;;;;;12.38;100.00;99159.53;5000368;28;20205;-83
2023/10/28 10:50:40;;;;;;;1.30;0.83;;;;;;;12.42;100.00;99157.44;5000790;28;20227;-83
2023/10/28 10:53:07;;;;;;;2.23;1.10;;;;;;;12.50;100.00;99154.91;5005744;28;20211;-81
2023/10/28 10:55:33;;;;;;;1.03;0.63;;;;;;;12.55;100.00;99159.78;5002522;28;20234;-81
2023/10/28 10:58:01;;;;;;;4.10;2.80;;;;;;;12.60;100.00;99160.19;5001333;28;20690;-81
2023/10/28 11:00:30;;;;;;;1.17;1.07;;;;;;;12.66;100.00;99157.78;5002842;28;20231;-82
2023/10/28 11:02:58;;;;;;;2.57;1.33;;;;;;;12.66;100.00;99152.44;5015635;28;20208;-82
2023/10/28 11:05:29;;;;;;;4.10;1.50;;;;;;;12.68;100.00;99152.28;5002028;28;20256;-82
2023/10/28 11:07:56;;;;;;;1.33;0.70;;;;;;;12.68;100.00;99157.63;4993912;28;20249;-82
2023/10/28 11:10:23;;;;;;;1.43;0.50;;;;;;;12.70;100.00;99155.66;5002901;28;20210;-83
2023/10/28 11:12:50;;;;;;;1.70;0.40;;;;;;;12.72;100.00;99151.03;5005620;28;20203;-83
2023/10/28 11:15:21;;;;;;;1.07;0.40;;;;;;;12.72;100.00;99151.03;5010561;28;20233;-82
2023/10/28 11:17:48;;;;;;;0.93;0.43;;;;;;;12.81;100.00;99150.13;5009902;28;20207;-82
2023/10/28 11:20:19;;;;;;;0.70;0.70;;;;;;;12.85;100.00;99152.34;5007558;28;20236;-83
2023/10/28 11:22:46;;;;;;;1.57;0.70;;;;;;;12.89;100.00;99149.41;5003950;28;20216;-83
2023/10/28 11:25:12;;;;;;;1.83;0.60;;;;;;;12.92;100.00;99151.75;5008603;28;20230;-83
2023/10/28 11:27:39;;;;;;;1.67;0.70;;;;;;;12.99;100.00;99143.00;5009341;28;20199;-82